sensor_id;sensor_type;location;lat;lon;timestamp;P1;durP1;ratioP1;P2;durP2;ratioP2
74620;SDS011;75998;47.550;19.254;2024-03-02T00:00:18;50.72;;;29.25;;
74620;SDS011;75998;47.550;19.254;2024-03-02T00:02:46;46.53;;;29.20;;
74620;SDS011;75998;47.550;19.254;2024-03-02T00:05:13;53.67;;;29.92;;
74620;SDS011;75998;47.550;19.254;2024-03-02T00:07:41;49.22;;;28.35;;
74620;SDS011;75998;47.550;19.254;2024-03-02T00:10:08;47.83;;;29.23;;
74620;SDS011;75998;47.550;19.254;2024-03-02T00:12:38;44.55;;;28.10;;
74620;SDS011;75998;47.550;19.254;2024-03-02T00:15:05;49.42;;;29.50;;
74620;SDS011;75998;47.550;19.254;2024-03-02T00:17:54;56.05;;;30.52;;
74620;SDS011;75998;47.550;19.254;2024-03-02T00:20:21;50.03;;;28.13;;
74620;SDS011;75998;47.550;19.254;2024-03-02T00:22:51;46.28;;;30.58;;
74620;SDS011;75998;47.550;19.254;2024-03-02T00:25:16;50.97;;;29.40;;
74620;SDS011;75998;47.550;19.254;2024-03-02T00:27:42;49.75;;;29.70;;
74620;SDS011;75998;47.550;19.254;2024-03-02T00:33:10;45.17;;;25.95;;
74620;SDS011;75998;47.550;19.254;2024-03-02T00:35:39;50.55;;;27.75;;
74620;SDS011;75998;47.550;19.254;2024-03-02T00:38:11;44.45;;;26.63;;
74620;SDS011;75998;47.550;19.254;2024-03-02T00:40:37;48.10;;;27.90;;
74620;SDS011;75998;47.550;19.254;2024-03-02T00:43:03;48.58;;;27.70;;
74620;SDS011;75998;47.550;19.254;2024-03-02T00:45:30;45.03;;;26.50;;
74620;SDS011;75998;47.550;19.254;2024-03-02T00:47:56;45.47;;;27.70;;
74620;SDS011;75998;47.550;19.254;2024-03-02T00:50:22;46.42;;;25.73;;
74620;SDS011;75998;47.550;19.254;2024-03-02T00:52:47;47.88;;;26.63;;
74620;SDS011;75998;47.550;19.254;2024-03-02T00:55:15;41.20;;;25.10;;
74620;SDS011;75998;47.550;19.254;2024-03-02T00:57:41;44.20;;;25.27;;
74620;SDS011;75998;47.550;19.254;2024-03-02T01:00:08;44.40;;;26.08;;
74620;SDS011;75998;47.550;19.254;2024-03-02T01:02:37;42.10;;;25.90;;
74620;SDS011;75998;47.550;19.254;2024-03-02T01:05:10;46.42;;;25.58;;
74620;SDS011;75998;47.550;19.254;2024-03-02T01:07:37;45.80;;;24.75;;
74620;SDS011;75998;47.550;19.254;2024-03-02T01:10:06;47.70;;;27.60;;
74620;SDS011;75998;47.550;19.254;2024-03-02T01:12:33;48.67;;;28.05;;
74620;SDS011;75998;47.550;19.254;2024-03-02T01:15:01;47.63;;;28.33;;
74620;SDS011;75998;47.550;19.254;2024-03-02T01:17:31;47.72;;;26.98;;
74620;SDS011;75998;47.550;19.254;2024-03-02T01:19:56;46.15;;;27.27;;
74620;SDS011;75998;47.550;19.254;2024-03-02T01:22:22;42.22;;;27.35;;
74620;SDS011;75998;47.550;19.254;2024-03-02T01:24:51;46.47;;;27.60;;
74620;SDS011;75998;47.550;19.254;2024-03-02T01:27:16;45.70;;;26.85;;
74620;SDS011;75998;47.550;19.254;2024-03-02T01:29:42;42.42;;;27.58;;
74620;SDS011;75998;47.550;19.254;2024-03-02T01:32:07;46.38;;;27.80;;
74620;SDS011;75998;47.550;19.254;2024-03-02T01:34:33;46.75;;;26.98;;
74620;SDS011;75998;47.550;19.254;2024-03-02T01:36:58;52.47;;;27.52;;
74620;SDS011;75998;47.550;19.254;2024-03-02T01:39:27;46.15;;;27.00;;
74620;SDS011;75998;47.550;19.254;2024-03-02T01:41:52;45.80;;;28.25;;
74620;SDS011;75998;47.550;19.254;2024-03-02T01:44:18;46.03;;;28.88;;
74620;SDS011;75998;47.550;19.254;2024-03-02T01:46:43;46.58;;;26.90;;
74620;SDS011;75998;47.550;19.254;2024-03-02T01:49:09;45.17;;;27.38;;
74620;SDS011;75998;47.550;19.254;2024-03-02T01:51:34;45.53;;;26.48;;
74620;SDS011;75998;47.550;19.254;2024-03-02T01:54:01;38.72;;;24.42;;
74620;SDS011;75998;47.550;19.254;2024-03-02T01:56:26;45.40;;;25.75;;
74620;SDS011;75998;47.550;19.254;2024-03-02T01:58:57;42.67;;;25.02;;
74620;SDS011;75998;47.550;19.254;2024-03-02T02:01:23;42.10;;;24.63;;
74620;SDS011;75998;47.550;19.254;2024-03-02T02:03:49;44.13;;;24.75;;
74620;SDS011;75998;47.550;19.254;2024-03-02T02:06:15;40.78;;;24.25;;
74620;SDS011;75998;47.550;19.254;2024-03-02T02:08:43;41.08;;;23.30;;
74620;SDS011;75998;47.550;19.254;2024-03-02T02:11:10;39.20;;;23.85;;
74620;SDS011;75998;47.550;19.254;2024-03-02T02:13:36;39.75;;;23.55;;
74620;SDS011;75998;47.550;19.254;2024-03-02T02:16:05;38.17;;;23.38;;
74620;SDS011;75998;47.550;19.254;2024-03-02T02:18:32;39.70;;;24.05;;
74620;SDS011;75998;47.550;19.254;2024-03-02T02:21:01;43.67;;;25.85;;
74620;SDS011;75998;47.550;19.254;2024-03-02T02:23:27;38.20;;;22.60;;
74620;SDS011;75998;47.550;19.254;2024-03-02T02:25:52;40.00;;;25.42;;
74620;SDS011;75998;47.550;19.254;2024-03-02T02:28:18;40.30;;;23.45;;
74620;SDS011;75998;47.550;19.254;2024-03-02T02:30:44;43.45;;;24.42;;
74620;SDS011;75998;47.550;19.254;2024-03-02T02:33:11;45.13;;;25.55;;
74620;SDS011;75998;47.550;19.254;2024-03-02T02:35:36;41.10;;;25.38;;
74620;SDS011;75998;47.550;19.254;2024-03-02T02:38:02;43.22;;;24.55;;
74620;SDS011;75998;47.550;19.254;2024-03-02T02:40:31;42.08;;;26.23;;
74620;SDS011;75998;47.550;19.254;2024-03-02T02:42:59;43.47;;;25.65;;
74620;SDS011;75998;47.550;19.254;2024-03-02T02:45:24;44.97;;;26.48;;
74620;SDS011;75998;47.550;19.254;2024-03-02T02:47:50;42.92;;;24.75;;
74620;SDS011;75998;47.550;19.254;2024-03-02T02:50:15;40.80;;;24.27;;
74620;SDS011;75998;47.550;19.254;2024-03-02T02:52:41;40.72;;;24.50;;
74620;SDS011;75998;47.550;19.254;2024-03-02T02:55:09;42.20;;;25.75;;
74620;SDS011;75998;47.550;19.254;2024-03-02T02:57:36;45.92;;;26.70;;
74620;SDS011;75998;47.550;19.254;2024-03-02T03:00:09;50.45;;;24.15;;
74620;SDS011;75998;47.550;19.254;2024-03-02T03:02:41;40.72;;;26.30;;
74620;SDS011;75998;47.550;19.254;2024-03-02T03:05:11;48.15;;;26.33;;
74620;SDS011;75998;47.550;19.254;2024-03-02T03:07:39;43.13;;;27.35;;
74620;SDS011;75998;47.550;19.254;2024-03-02T03:10:06;47.00;;;28.40;;
74620;SDS011;75998;47.550;19.254;2024-03-02T03:12:33;48.35;;;27.92;;
74620;SDS011;75998;47.550;19.254;2024-03-02T03:15:01;45.33;;;27.15;;
74620;SDS011;75998;47.550;19.254;2024-03-02T03:17:29;45.05;;;26.23;;
74620;SDS011;75998;47.550;19.254;2024-03-02T03:19:55;49.22;;;30.05;;
74620;SDS011;75998;47.550;19.254;2024-03-02T03:22:25;44.80;;;27.55;;
74620;SDS011;75998;47.550;19.254;2024-03-02T03:24:51;46.65;;;27.88;;
74620;SDS011;75998;47.550;19.254;2024-03-02T03:27:16;49.03;;;25.92;;
74620;SDS011;75998;47.550;19.254;2024-03-02T03:29:41;45.03;;;25.58;;
74620;SDS011;75998;47.550;19.254;2024-03-02T03:32:07;44.40;;;26.02;;
74620;SDS011;75998;47.550;19.254;2024-03-02T03:34:33;44.25;;;26.63;;
74620;SDS011;75998;47.550;19.254;2024-03-02T03:36:58;46.83;;;26.30;;
74620;SDS011;75998;47.550;19.254;2024-03-02T03:39:24;42.50;;;26.45;;
74620;SDS011;75998;47.550;19.254;2024-03-02T03:41:49;41.22;;;26.17;;
74620;SDS011;75998;47.550;19.254;2024-03-02T03:44:15;41.38;;;26.50;;
74620;SDS011;75998;47.550;19.254;2024-03-02T03:46:40;45.10;;;26.73;;
74620;SDS011;75998;47.550;19.254;2024-03-02T03:49:06;48.13;;;25.67;;
74620;SDS011;75998;47.550;19.254;2024-03-02T03:51:35;44.60;;;27.35;;
74620;SDS011;75998;47.550;19.254;2024-03-02T03:54:01;47.58;;;28.10;;
74620;SDS011;75998;47.550;19.254;2024-03-02T03:56:26;48.83;;;25.10;;
74620;SDS011;75998;47.550;19.254;2024-03-02T03:58:52;43.47;;;27.25;;
74620;SDS011;75998;47.550;19.254;2024-03-02T04:01:26;52.88;;;29.88;;
74620;SDS011;75998;47.550;19.254;2024-03-02T04:04:43;44.42;;;26.33;;
74620;SDS011;75998;47.550;19.254;2024-03-02T04:07:09;48.13;;;29.65;;
74620;SDS011;75998;47.550;19.254;2024-03-02T04:09:34;49.28;;;29.55;;
74620;SDS011;75998;47.550;19.254;2024-03-02T04:12:02;48.03;;;30.13;;
74620;SDS011;75998;47.550;19.254;2024-03-02T04:14:28;50.40;;;29.92;;
74620;SDS011;75998;47.550;19.254;2024-03-02T04:16:53;48.63;;;33.33;;
74620;SDS011;75998;47.550;19.254;2024-03-02T04:19:19;54.55;;;29.15;;
74620;SDS011;75998;47.550;19.254;2024-03-02T04:21:44;48.53;;;28.35;;
74620;SDS011;75998;47.550;19.254;2024-03-02T04:24:10;52.33;;;32.83;;
74620;SDS011;75998;47.550;19.254;2024-03-02T04:26:35;53.35;;;31.73;;
74620;SDS011;75998;47.550;19.254;2024-03-02T04:29:00;53.15;;;30.42;;
74620;SDS011;75998;47.550;19.254;2024-03-02T04:31:27;50.25;;;29.08;;
74620;SDS011;75998;47.550;19.254;2024-03-02T04:33:52;52.90;;;31.80;;
74620;SDS011;75998;47.550;19.254;2024-03-02T04:36:19;47.85;;;30.13;;
74620;SDS011;75998;47.550;19.254;2024-03-02T04:38:48;53.38;;;31.73;;
74620;SDS011;75998;47.550;19.254;2024-03-02T04:41:19;51.30;;;30.05;;
74620;SDS011;75998;47.550;19.254;2024-03-02T04:43:47;51.45;;;31.88;;
74620;SDS011;75998;47.550;19.254;2024-03-02T04:46:12;51.65;;;31.52;;
74620;SDS011;75998;47.550;19.254;2024-03-02T04:48:40;52.15;;;30.73;;
74620;SDS011;75998;47.550;19.254;2024-03-02T04:51:06;52.03;;;30.50;;
74620;SDS011;75998;47.550;19.254;2024-03-02T04:53:31;51.78;;;32.95;;
74620;SDS011;75998;47.550;19.254;2024-03-02T04:55:56;50.72;;;31.77;;
74620;SDS011;75998;47.550;19.254;2024-03-02T05:01:06;58.78;;;34.60;;
74620;SDS011;75998;47.550;19.254;2024-03-02T05:03:31;55.80;;;33.25;;
74620;SDS011;75998;47.550;19.254;2024-03-02T05:05:59;57.10;;;32.60;;
74620;SDS011;75998;47.550;19.254;2024-03-02T05:08:25;53.67;;;33.70;;
74620;SDS011;75998;47.550;19.254;2024-03-02T05:10:50;50.95;;;33.33;;
74620;SDS011;75998;47.550;19.254;2024-03-02T05:13:16;55.72;;;33.90;;
74620;SDS011;75998;47.550;19.254;2024-03-02T05:15:45;54.35;;;30.38;;
74620;SDS011;75998;47.550;19.254;2024-03-02T05:18:10;64.07;;;35.40;;
74620;SDS011;75998;47.550;19.254;2024-03-02T05:20:36;61.22;;;34.58;;
74620;SDS011;75998;47.550;19.254;2024-03-02T05:23:01;52.47;;;30.38;;
74620;SDS011;75998;47.550;19.254;2024-03-02T05:25:27;53.03;;;29.80;;
74620;SDS011;75998;47.550;19.254;2024-03-02T05:27:52;59.97;;;35.35;;
74620;SDS011;75998;47.550;19.254;2024-03-02T05:30:17;69.15;;;35.97;;
74620;SDS011;75998;47.550;19.254;2024-03-02T05:32:43;60.55;;;33.53;;
74620;SDS011;75998;47.550;19.254;2024-03-02T05:35:09;59.35;;;34.80;;
74620;SDS011;75998;47.550;19.254;2024-03-02T05:37:37;48.63;;;28.23;;
74620;SDS011;75998;47.550;19.254;2024-03-02T05:40:02;57.67;;;35.17;;
74620;SDS011;75998;47.550;19.254;2024-03-02T05:42:34;57.65;;;33.95;;
74620;SDS011;75998;47.550;19.254;2024-03-02T05:45:03;53.15;;;31.85;;
74620;SDS011;75998;47.550;19.254;2024-03-02T05:47:31;55.10;;;32.70;;
74620;SDS011;75998;47.550;19.254;2024-03-02T05:49:58;58.63;;;34.30;;
74620;SDS011;75998;47.550;19.254;2024-03-02T05:52:23;60.47;;;33.88;;
74620;SDS011;75998;47.550;19.254;2024-03-02T05:54:49;51.28;;;32.55;;
74620;SDS011;75998;47.550;19.254;2024-03-02T05:57:15;52.63;;;32.47;;
74620;SDS011;75998;47.550;19.254;2024-03-02T06:00:03;51.35;;;30.92;;
74620;SDS011;75998;47.550;19.254;2024-03-02T06:02:35;57.55;;;34.40;;
74620;SDS011;75998;47.550;19.254;2024-03-02T06:05:05;50.42;;;29.55;;
74620;SDS011;75998;47.550;19.254;2024-03-02T06:07:32;58.55;;;35.70;;
74620;SDS011;75998;47.550;19.254;2024-03-02T06:09:57;61.00;;;35.85;;
74620;SDS011;75998;47.550;19.254;2024-03-02T06:12:23;65.38;;;37.20;;
74620;SDS011;75998;47.550;19.254;2024-03-02T06:14:49;64.47;;;36.20;;
74620;SDS011;75998;47.550;19.254;2024-03-02T06:17:14;63.22;;;35.67;;
74620;SDS011;75998;47.550;19.254;2024-03-02T06:19:40;60.25;;;36.05;;
74620;SDS011;75998;47.550;19.254;2024-03-02T06:22:05;58.08;;;36.53;;
74620;SDS011;75998;47.550;19.254;2024-03-02T06:24:31;57.17;;;34.72;;
74620;SDS011;75998;47.550;19.254;2024-03-02T06:26:56;59.80;;;35.10;;
74620;SDS011;75998;47.550;19.254;2024-03-02T06:29:22;60.50;;;33.42;;
74620;SDS011;75998;47.550;19.254;2024-03-02T06:31:49;59.63;;;37.17;;
74620;SDS011;75998;47.550;19.254;2024-03-02T06:34:15;55.90;;;30.77;;
74620;SDS011;75998;47.550;19.254;2024-03-02T06:36:40;69.20;;;37.75;;
74620;SDS011;75998;47.550;19.254;2024-03-02T06:39:09;62.80;;;35.55;;
74620;SDS011;75998;47.550;19.254;2024-03-02T06:41:37;58.53;;;34.30;;
74620;SDS011;75998;47.550;19.254;2024-03-02T06:44:03;64.10;;;37.20;;
74620;SDS011;75998;47.550;19.254;2024-03-02T06:46:28;63.35;;;37.55;;
74620;SDS011;75998;47.550;19.254;2024-03-02T06:48:54;63.95;;;35.72;;
74620;SDS011;75998;47.550;19.254;2024-03-02T06:51:20;59.65;;;34.53;;
74620;SDS011;75998;47.550;19.254;2024-03-02T06:53:45;60.72;;;37.50;;
74620;SDS011;75998;47.550;19.254;2024-03-02T06:56:14;56.67;;;34.83;;
74620;SDS011;75998;47.550;19.254;2024-03-02T06:58:43;67.80;;;39.78;;
74620;SDS011;75998;47.550;19.254;2024-03-02T07:01:08;65.82;;;37.20;;
74620;SDS011;75998;47.550;19.254;2024-03-02T07:03:37;63.78;;;35.83;;
74620;SDS011;75998;47.550;19.254;2024-03-02T07:06:04;66.43;;;37.53;;
74620;SDS011;75998;47.550;19.254;2024-03-02T07:08:30;54.08;;;33.60;;
74620;SDS011;75998;47.550;19.254;2024-03-02T07:10:56;68.95;;;40.22;;
74620;SDS011;75998;47.550;19.254;2024-03-02T07:13:22;56.45;;;35.50;;
74620;SDS011;75998;47.550;19.254;2024-03-02T07:15:47;58.38;;;36.95;;
74620;SDS011;75998;47.550;19.254;2024-03-02T07:18:48;57.65;;;34.95;;
74620;SDS011;75998;47.550;19.254;2024-03-02T07:21:17;54.47;;;32.13;;
74620;SDS011;75998;47.550;19.254;2024-03-02T07:23:43;64.28;;;39.20;;
74620;SDS011;75998;47.550;19.254;2024-03-02T07:26:08;60.28;;;36.38;;
74620;SDS011;75998;47.550;19.254;2024-03-02T07:28:34;55.22;;;32.92;;
74620;SDS011;75998;47.550;19.254;2024-03-02T07:31:03;57.67;;;36.65;;
74620;SDS011;75998;47.550;19.254;2024-03-02T07:33:29;64.10;;;36.38;;
74620;SDS011;75998;47.550;19.254;2024-03-02T07:35:55;58.42;;;35.60;;
74620;SDS011;75998;47.550;19.254;2024-03-02T07:38:21;50.90;;;30.00;;
74620;SDS011;75998;47.550;19.254;2024-03-02T07:40:47;57.67;;;34.22;;
74620;SDS011;75998;47.550;19.254;2024-03-02T07:43:16;51.38;;;30.95;;
74620;SDS011;75998;47.550;19.254;2024-03-02T07:45:42;56.58;;;35.20;;
74620;SDS011;75998;47.550;19.254;2024-03-02T07:48:07;58.78;;;32.67;;
74620;SDS011;75998;47.550;19.254;2024-03-02T07:50:33;67.72;;;40.00;;
74620;SDS011;75998;47.550;19.254;2024-03-02T07:53:00;58.00;;;36.42;;
74620;SDS011;75998;47.550;19.254;2024-03-02T07:55:26;56.63;;;32.65;;
74620;SDS011;75998;47.550;19.254;2024-03-02T07:57:51;63.15;;;39.13;;
74620;SDS011;75998;47.550;19.254;2024-03-02T08:00:17;63.42;;;39.13;;
74620;SDS011;75998;47.550;19.254;2024-03-02T08:02:42;63.83;;;38.30;;
74620;SDS011;75998;47.550;19.254;2024-03-02T08:05:08;61.65;;;35.35;;
74620;SDS011;75998;47.550;19.254;2024-03-02T08:07:34;60.50;;;40.25;;
74620;SDS011;75998;47.550;19.254;2024-03-02T08:09:59;61.63;;;38.33;;
74620;SDS011;75998;47.550;19.254;2024-03-02T08:12:25;64.50;;;39.63;;
74620;SDS011;75998;47.550;19.254;2024-03-02T08:14:50;68.07;;;41.10;;
74620;SDS011;75998;47.550;19.254;2024-03-02T08:17:16;65.50;;;40.05;;
74620;SDS011;75998;47.550;19.254;2024-03-02T08:19:42;58.17;;;32.60;;
74620;SDS011;75998;47.550;19.254;2024-03-02T08:22:07;62.92;;;39.03;;
74620;SDS011;75998;47.550;19.254;2024-03-02T08:24:33;63.70;;;36.35;;
74620;SDS011;75998;47.550;19.254;2024-03-02T08:26:59;66.57;;;39.55;;
74620;SDS011;75998;47.550;19.254;2024-03-02T08:29:25;61.70;;;36.15;;
74620;SDS011;75998;47.550;19.254;2024-03-02T08:31:50;65.70;;;37.70;;
74620;SDS011;75998;47.550;19.254;2024-03-02T08:34:16;67.85;;;38.20;;
74620;SDS011;75998;47.550;19.254;2024-03-02T08:36:41;60.17;;;34.85;;
74620;SDS011;75998;47.550;19.254;2024-03-02T08:39:09;53.83;;;35.08;;
74620;SDS011;75998;47.550;19.254;2024-03-02T08:41:41;52.88;;;32.35;;
74620;SDS011;75998;47.550;19.254;2024-03-02T08:44:08;46.17;;;29.35;;
74620;SDS011;75998;47.550;19.254;2024-03-02T08:46:34;54.72;;;35.30;;
74620;SDS011;75998;47.550;19.254;2024-03-02T08:48:59;55.35;;;34.20;;
74620;SDS011;75998;47.550;19.254;2024-03-02T08:51:25;48.30;;;29.05;;
74620;SDS011;75998;47.550;19.254;2024-03-02T08:53:50;61.28;;;38.33;;
74620;SDS011;75998;47.550;19.254;2024-03-02T08:56:16;60.53;;;39.95;;
74620;SDS011;75998;47.550;19.254;2024-03-02T08:58:41;63.65;;;40.20;;
74620;SDS011;75998;47.550;19.254;2024-03-02T09:01:08;61.00;;;38.05;;
74620;SDS011;75998;47.550;19.254;2024-03-02T09:03:33;60.08;;;38.08;;
74620;SDS011;75998;47.550;19.254;2024-03-02T09:06:00;40.67;;;28.50;;
74620;SDS011;75998;47.550;19.254;2024-03-02T09:08:25;40.75;;;25.90;;
74620;SDS011;75998;47.550;19.254;2024-03-02T09:10:51;43.05;;;26.17;;
74620;SDS011;75998;47.550;19.254;2024-03-02T09:13:17;43.15;;;27.33;;
74620;SDS011;75998;47.550;19.254;2024-03-02T09:15:42;40.53;;;27.50;;
74620;SDS011;75998;47.550;19.254;2024-03-02T09:18:09;35.72;;;25.33;;
74620;SDS011;75998;47.550;19.254;2024-03-02T09:20:35;34.80;;;21.55;;
74620;SDS011;75998;47.550;19.254;2024-03-02T09:23:00;31.80;;;21.92;;
74620;SDS011;75998;47.550;19.254;2024-03-02T09:25:26;29.52;;;21.27;;
74620;SDS011;75998;47.550;19.254;2024-03-02T09:27:51;31.45;;;22.83;;
74620;SDS011;75998;47.550;19.254;2024-03-02T09:30:17;30.83;;;21.55;;
74620;SDS011;75998;47.550;19.254;2024-03-02T09:32:43;29.92;;;22.13;;
74620;SDS011;75998;47.550;19.254;2024-03-02T09:35:08;24.48;;;16.88;;
74620;SDS011;75998;47.550;19.254;2024-03-02T09:37:34;27.98;;;20.25;;
74620;SDS011;75998;47.550;19.254;2024-03-02T09:40:00;24.83;;;17.55;;
74620;SDS011;75998;47.550;19.254;2024-03-02T09:42:26;30.98;;;22.15;;
74620;SDS011;75998;47.550;19.254;2024-03-02T09:44:52;28.20;;;20.60;;
74620;SDS011;75998;47.550;19.254;2024-03-02T09:47:18;21.40;;;12.25;;
74620;SDS011;75998;47.550;19.254;2024-03-02T09:49:43;26.95;;;18.23;;
74620;SDS011;75998;47.550;19.254;2024-03-02T09:52:10;38.58;;;23.80;;
74620;SDS011;75998;47.550;19.254;2024-03-02T09:54:35;24.95;;;16.67;;
74620;SDS011;75998;47.550;19.254;2024-03-02T09:57:02;21.63;;;14.75;;
74620;SDS011;75998;47.550;19.254;2024-03-02T09:59:28;25.65;;;19.20;;
74620;SDS011;75998;47.550;19.254;2024-03-02T10:02:00;24.38;;;17.02;;
74620;SDS011;75998;47.550;19.254;2024-03-02T10:04:27;18.27;;;12.93;;
74620;SDS011;75998;47.550;19.254;2024-03-02T10:07:16;22.85;;;16.70;;
74620;SDS011;75998;47.550;19.254;2024-03-02T10:09:44;21.55;;;15.93;;
74620;SDS011;75998;47.550;19.254;2024-03-02T10:12:11;18.63;;;12.90;;
74620;SDS011;75998;47.550;19.254;2024-03-02T10:14:37;19.95;;;13.85;;
74620;SDS011;75998;47.550;19.254;2024-03-02T10:17:04;20.40;;;15.20;;
74620;SDS011;75998;47.550;19.254;2024-03-02T10:19:31;19.00;;;13.82;;
74620;SDS011;75998;47.550;19.254;2024-03-02T10:21:59;23.00;;;14.80;;
74620;SDS011;75998;47.550;19.254;2024-03-02T10:24:26;20.42;;;13.40;;
74620;SDS011;75998;47.550;19.254;2024-03-02T10:26:52;22.90;;;13.82;;
74620;SDS011;75998;47.550;19.254;2024-03-02T10:29:17;16.90;;;11.70;;
74620;SDS011;75998;47.550;19.254;2024-03-02T10:31:44;22.58;;;17.30;;
74620;SDS011;75998;47.550;19.254;2024-03-02T10:34:11;21.75;;;14.98;;
74620;SDS011;75998;47.550;19.254;2024-03-02T10:36:37;25.55;;;18.02;;
74620;SDS011;75998;47.550;19.254;2024-03-02T10:39:07;28.90;;;18.52;;
74620;SDS011;75998;47.550;19.254;2024-03-02T10:41:36;23.58;;;18.08;;
74620;SDS011;75998;47.550;19.254;2024-03-02T10:44:03;24.48;;;16.20;;
74620;SDS011;75998;47.550;19.254;2024-03-02T10:46:30;25.15;;;16.10;;
74620;SDS011;75998;47.550;19.254;2024-03-02T10:48:57;20.73;;;14.25;;
74620;SDS011;75998;47.550;19.254;2024-03-02T10:51:27;24.98;;;17.67;;
74620;SDS011;75998;47.550;19.254;2024-03-02T10:53:56;25.90;;;18.73;;
74620;SDS011;75998;47.550;19.254;2024-03-02T10:56:28;26.70;;;18.98;;
74620;SDS011;75998;47.550;19.254;2024-03-02T11:01:32;26.25;;;18.83;;
74620;SDS011;75998;47.550;19.254;2024-03-02T11:03:58;23.25;;;16.73;;
74620;SDS011;75998;47.550;19.254;2024-03-02T11:06:24;26.38;;;19.00;;
74620;SDS011;75998;47.550;19.254;2024-03-02T11:08:53;29.52;;;20.60;;
74620;SDS011;75998;47.550;19.254;2024-03-02T11:11:27;28.35;;;20.70;;
74620;SDS011;75998;47.550;19.254;2024-03-02T11:13:56;27.55;;;19.73;;
74620;SDS011;75998;47.550;19.254;2024-03-02T11:16:33;30.92;;;22.75;;
74620;SDS011;75998;47.550;19.254;2024-03-02T11:19:05;29.55;;;20.27;;
74620;SDS011;75998;47.550;19.254;2024-03-02T11:21:33;30.40;;;23.65;;
74620;SDS011;75998;47.550;19.254;2024-03-02T11:23:59;26.55;;;19.13;;
74620;SDS011;75998;47.550;19.254;2024-03-02T11:26:25;29.60;;;21.80;;
74620;SDS011;75998;47.550;19.254;2024-03-02T11:28:50;23.52;;;16.77;;
74620;SDS011;75998;47.550;19.254;2024-03-02T11:31:16;22.85;;;14.50;;
74620;SDS011;75998;47.550;19.254;2024-03-02T11:33:44;25.75;;;17.73;;
74620;SDS011;75998;47.550;19.254;2024-03-02T11:36:12;25.63;;;18.75;;
74620;SDS011;75998;47.550;19.254;2024-03-02T11:38:37;23.17;;;17.17;;
74620;SDS011;75998;47.550;19.254;2024-03-02T11:41:05;24.73;;;18.88;;
74620;SDS011;75998;47.550;19.254;2024-03-02T11:43:36;29.52;;;20.50;;
74620;SDS011;75998;47.550;19.254;2024-03-02T11:46:04;31.75;;;23.60;;
74620;SDS011;75998;47.550;19.254;2024-03-02T11:48:34;29.13;;;21.38;;
74620;SDS011;75998;47.550;19.254;2024-03-02T11:51:01;28.27;;;20.92;;
74620;SDS011;75998;47.550;19.254;2024-03-02T11:53:27;34.58;;;24.95;;
74620;SDS011;75998;47.550;19.254;2024-03-02T11:55:58;36.83;;;25.73;;
74620;SDS011;75998;47.550;19.254;2024-03-02T11:58:24;29.45;;;20.98;;
74620;SDS011;75998;47.550;19.254;2024-03-02T12:00:56;26.73;;;19.15;;
74620;SDS011;75998;47.550;19.254;2024-03-02T12:03:22;30.15;;;20.95;;
74620;SDS011;75998;47.550;19.254;2024-03-02T12:05:57;25.80;;;19.15;;
74620;SDS011;75998;47.550;19.254;2024-03-02T12:08:23;22.70;;;17.95;;
74620;SDS011;75998;47.550;19.254;2024-03-02T12:10:55;23.30;;;18.27;;
74620;SDS011;75998;47.550;19.254;2024-03-02T12:13:24;26.20;;;18.17;;
74620;SDS011;75998;47.550;19.254;2024-03-02T12:15:55;19.88;;;13.82;;
74620;SDS011;75998;47.550;19.254;2024-03-02T12:18:21;21.73;;;15.80;;
74620;SDS011;75998;47.550;19.254;2024-03-02T12:20:49;19.33;;;14.35;;
74620;SDS011;75998;47.550;19.254;2024-03-02T12:23:18;21.95;;;14.55;;
74620;SDS011;75998;47.550;19.254;2024-03-02T12:25:43;20.13;;;14.48;;
74620;SDS011;75998;47.550;19.254;2024-03-02T12:28:09;23.05;;;15.20;;
74620;SDS011;75998;47.550;19.254;2024-03-02T12:30:35;22.08;;;14.80;;
74620;SDS011;75998;47.550;19.254;2024-03-02T12:33:01;22.30;;;13.88;;
74620;SDS011;75998;47.550;19.254;2024-03-02T12:35:27;29.35;;;15.10;;
74620;SDS011;75998;47.550;19.254;2024-03-02T12:37:53;23.70;;;15.27;;
74620;SDS011;75998;47.550;19.254;2024-03-02T12:40:19;24.52;;;14.98;;
74620;SDS011;75998;47.550;19.254;2024-03-02T12:42:48;20.80;;;14.10;;
74620;SDS011;75998;47.550;19.254;2024-03-02T12:45:15;21.10;;;13.10;;
74620;SDS011;75998;47.550;19.254;2024-03-02T12:47:43;21.15;;;13.40;;
74620;SDS011;75998;47.550;19.254;2024-03-02T12:50:21;24.23;;;13.02;;
74620;SDS011;75998;47.550;19.254;2024-03-02T12:52:51;25.02;;;13.07;;
74620;SDS011;75998;47.550;19.254;2024-03-02T12:55:17;23.00;;;14.60;;
74620;SDS011;75998;47.550;19.254;2024-03-02T12:57:43;23.40;;;14.80;;
74620;SDS011;75998;47.550;19.254;2024-03-02T13:00:18;24.75;;;14.02;;
74620;SDS011;75998;47.550;19.254;2024-03-02T13:02:47;26.48;;;14.73;;
74620;SDS011;75998;47.550;19.254;2024-03-02T13:05:21;29.40;;;16.83;;
74620;SDS011;75998;47.550;19.254;2024-03-02T13:07:49;24.75;;;15.27;;
74620;SDS011;75998;47.550;19.254;2024-03-02T13:10:15;29.30;;;17.13;;
74620;SDS011;75998;47.550;19.254;2024-03-02T13:12:46;33.65;;;18.83;;
74620;SDS011;75998;47.550;19.254;2024-03-02T13:15:12;31.75;;;18.40;;
74620;SDS011;75998;47.550;19.254;2024-03-02T13:17:40;33.70;;;18.35;;
74620;SDS011;75998;47.550;19.254;2024-03-02T13:20:06;26.23;;;14.98;;
74620;SDS011;75998;47.550;19.254;2024-03-02T13:22:38;34.63;;;15.88;;
74620;SDS011;75998;47.550;19.254;2024-03-02T13:25:03;34.72;;;16.92;;
74620;SDS011;75998;47.550;19.254;2024-03-02T13:27:30;28.65;;;15.20;;
74620;SDS011;75998;47.550;19.254;2024-03-02T13:30:03;28.85;;;17.23;;
74620;SDS011;75998;47.550;19.254;2024-03-02T13:32:33;38.85;;;20.63;;
74620;SDS011;75998;47.550;19.254;2024-03-02T13:34:58;32.08;;;16.40;;
74620;SDS011;75998;47.550;19.254;2024-03-02T13:37:24;40.45;;;19.55;;
74620;SDS011;75998;47.550;19.254;2024-03-02T13:39:53;35.42;;;17.15;;
74620;SDS011;75998;47.550;19.254;2024-03-02T13:42:24;55.83;;;26.98;;
74620;SDS011;75998;47.550;19.254;2024-03-02T13:44:52;52.03;;;25.45;;
74620;SDS011;75998;47.550;19.254;2024-03-02T13:47:18;48.40;;;23.73;;
74620;SDS011;75998;47.550;19.254;2024-03-02T13:49:43;35.83;;;19.88;;
74620;SDS011;75998;47.550;19.254;2024-03-02T13:52:10;43.53;;;24.13;;
74620;SDS011;75998;47.550;19.254;2024-03-02T13:54:38;40.25;;;20.88;;
74620;SDS011;75998;47.550;19.254;2024-03-02T13:57:10;31.58;;;16.13;;
74620;SDS011;75998;47.550;19.254;2024-03-02T13:59:36;34.30;;;21.33;;
74620;SDS011;75998;47.550;19.254;2024-03-02T14:02:02;28.17;;;17.08;;
74620;SDS011;75998;47.550;19.254;2024-03-02T14:04:32;36.97;;;20.33;;
74620;SDS011;75998;47.550;19.254;2024-03-02T14:06:58;39.80;;;21.33;;
74620;SDS011;75998;47.550;19.254;2024-03-02T14:09:24;36.33;;;21.58;;
74620;SDS011;75998;47.550;19.254;2024-03-02T14:11:50;34.90;;;20.02;;
74620;SDS011;75998;47.550;19.254;2024-03-02T14:14:21;27.77;;;15.70;;
74620;SDS011;75998;47.550;19.254;2024-03-02T14:16:46;32.33;;;18.75;;